createdAt,value
2019-05-17T00:00:04.079Z,100080.87
2019-05-17T00:02:37.767Z,100076.95
2019-05-17T00:05:11.379Z,100071.02
2019-05-17T00:07:47.259Z,100072.00
2019-05-17T00:10:19.925Z,100067.52
2019-05-17T00:12:53.339Z,100064.03
2019-05-17T00:15:27.349Z,100060.03
2019-05-17T00:18:00.823Z,100052.75
2019-05-17T00:20:34.214Z,100056.20
2019-05-17T00:23:07.708Z,100051.63
2019-05-17T00:25:41.098Z,100046.30
2019-05-17T00:28:16.448Z,100044.64
2019-05-17T00:30:49.637Z,100041.83
2019-05-17T00:33:23.038Z,100038.39
2019-05-17T00:35:56.447Z,100038.05
2019-05-17T00:38:29.945Z,100041.70
2019-05-17T00:41:03.353Z,100036.84
2019-05-17T00:43:36.996Z,100037.22
2019-05-17T00:46:10.520Z,100034.02
2019-05-17T00:48:44.006Z,100034.55
2019-05-17T00:51:17.386Z,100032.80
2019-05-17T00:53:50.800Z,100029.98
2019-05-17T00:56:26.481Z,100023.91
2019-05-17T00:58:59.423Z,100023.75
2019-05-17T01:01:32.821Z,100026.09
2019-05-17T01:04:06.895Z,100021.30
2019-05-17T01:06:40.484Z,100017.95
2019-05-17T01:09:13.900Z,100013.19
2019-05-17T01:11:47.556Z,100007.45
2019-05-17T01:14:21.064Z,100012.11
2019-05-17T01:16:56.366Z,100008.88
2019-05-17T01:19:29.607Z,100006.13
2019-05-17T01:22:03.127Z,100000.97
2019-05-17T01:24:36.954Z,99999.17
2019-05-17T01:27:10.308Z,99997.41
2019-05-17T01:29:43.711Z,99994.94
2019-05-17T01:32:17.362Z,99988.89
2019-05-17T01:34:51.001Z,99992.15
2019-05-17T01:37:24.460Z,99990.69
2019-05-17T01:39:57.918Z,99984.52
2019-05-17T01:42:31.292Z,99982.77
2019-05-17T01:45:07.277Z,99984.22
2019-05-17T01:47:40.794Z,99983.16
2019-05-17T01:50:17.245Z,99977.84
2019-05-17T01:52:49.947Z,99975.12
2019-05-17T01:55:23.350Z,99974.73
2019-05-17T01:57:56.739Z,99971.89
2019-05-17T02:00:30.166Z,99977.31
2019-05-17T02:03:03.543Z,99970.69
2019-05-17T02:05:37.543Z,99973.38
2019-05-17T02:08:11.038Z,99966.28
2019-05-17T02:10:46.515Z,99969.17
2019-05-17T02:13:19.592Z,99963.44
2019-05-17T02:15:53.064Z,99956.64
2019-05-17T02:18:26.718Z,99966.64
2019-05-17T02:21:00.136Z,99954.68
2019-05-17T02:23:33.530Z,99954.95
2019-05-17T02:26:07.077Z,99952.33
2019-05-17T02:28:41.476Z,99947.19
2019-05-17T02:31:15.230Z,99948.84
2019-05-17T02:33:48.779Z,99945.66
2019-05-17T02:36:22.829Z,99943.52
2019-05-17T02:38:56.374Z,99943.42
2019-05-17T02:41:33.053Z,99944.67
2019-05-17T02:44:05.175Z,99945.02
2019-05-17T02:46:38.581Z,99939.59
2019-05-17T02:49:13.670Z,99943.25
2019-05-17T02:51:47.112Z,99945.06
2019-05-17T02:54:23.237Z,99945.06
2019-05-17T02:56:55.640Z,99944.41
2019-05-17T02:59:29.033Z,99943.16
2019-05-17T03:02:03.545Z,99940.03
2019-05-17T03:04:37.187Z,99934.08
2019-05-17T03:07:13.573Z,99940.56
2019-05-17T03:09:45.737Z,99939.49
2019-05-17T03:12:19.155Z,99932.00
2019-05-17T03:14:52.954Z,99929.37
2019-05-17T03:17:26.436Z,99925.28
2019-05-17T03:20:03.570Z,99928.52
2019-05-17T03:22:35.020Z,99929.88
2019-05-17T03:25:08.634Z,99919.05
2019-05-17T03:27:42.901Z,99919.97
2019-05-17T03:30:18.921Z,99920.85
2019-05-17T03:32:56.494Z,99919.83
2019-05-17T03:35:29.066Z,99923.31
2019-05-17T03:38:03.725Z,99915.33
2019-05-17T03:41:03.595Z,99922.54
2019-05-17T03:43:13.861Z,99921.67
2019-05-17T03:45:47.532Z,99920.14
2019-05-17T03:48:22.180Z,99919.59
2019-05-17T03:50:55.828Z,99917.02
2019-05-17T03:53:29.373Z,99916.05
2019-05-17T03:56:03.172Z,99917.67
2019-05-17T03:58:36.753Z,99911.89
2019-05-17T04:01:10.132Z,99907.40
2019-05-17T04:03:43.675Z,99912.71
2019-05-17T04:06:16.991Z,99911.63
2019-05-17T04:08:52.753Z,99911.13
2019-05-17T04:11:31.480Z,99916.36
2019-05-17T04:14:02.931Z,99922.09
2019-05-17T04:16:35.926Z,99920.31
2019-05-17T04:19:09.400Z,99921.35
2019-05-17T04:21:43.024Z,99922.55
2019-05-17T04:24:16.541Z,99924.78
2019-05-17T04:26:52.367Z,99923.48
2019-05-17T04:29:25.078Z,99932.17
2019-05-17T04:31:58.773Z,99932.11
2019-05-17T04:34:33.631Z,99937.20
2019-05-17T04:37:07.284Z,99935.82
2019-05-17T04:39:43.200Z,99936.67
2019-05-17T04:42:15.827Z,99939.06
2019-05-17T04:44:52.450Z,99934.64
2019-05-17T04:47:24.421Z,99941.42
2019-05-17T04:49:57.830Z,99938.15
2019-05-17T04:52:33.676Z,99944.10
2019-05-17T04:55:06.463Z,99935.75
2019-05-17T04:57:43.289Z,99939.67
2019-05-17T05:00:16.046Z,99941.23
2019-05-17T05:02:52.521Z,99934.64
2019-05-17T05:05:24.642Z,99934.34
2019-05-17T05:07:58.031Z,99936.70
2019-05-17T05:10:33.321Z,99938.81
2019-05-17T05:13:06.639Z,99933.91
2019-05-17T05:15:44.312Z,99928.03
2019-05-17T05:18:18.123Z,99930.98
2019-05-17T05:20:52.732Z,99930.09
2019-05-17T05:23:26.285Z,99925.91
2019-05-17T05:25:59.697Z,99926.75
2019-05-17T05:28:33.093Z,99921.42
2019-05-17T05:31:06.523Z,99925.17
2019-05-17T05:33:41.953Z,99923.80
2019-05-17T05:36:15.060Z,99926.09
2019-05-17T05:38:48.457Z,99925.59
2019-05-17T05:41:22.609Z,99921.23
2019-05-17T05:43:56.034Z,99920.09
2019-05-17T05:46:31.654Z,99916.16
2019-05-17T05:49:04.740Z,99924.09
2019-05-17T05:51:38.167Z,99918.23
2019-05-17T05:54:12.280Z,99919.71
2019-05-17T05:56:46.046Z,99915.41
2019-05-17T05:59:19.543Z,99921.84
2019-05-17T06:01:52.927Z,99914.59
2019-05-17T06:04:26.510Z,99916.45
2019-05-17T06:06:59.945Z,99914.30
2019-05-17T06:09:33.340Z,99921.05
2019-05-17T06:12:18.982Z,99919.39
2019-05-17T06:14:42.012Z,99916.41
2019-05-17T06:17:15.431Z,99912.23
2019-05-17T06:19:48.891Z,99917.42
2019-05-17T06:22:22.489Z,99917.08
2019-05-17T06:24:55.996Z,99917.89
2019-05-17T06:27:29.393Z,99912.59
2019-05-17T06:30:02.954Z,99913.98
2019-05-17T06:32:36.373Z,99910.78
2019-05-17T06:35:12.356Z,99912.21
2019-05-17T06:37:45.074Z,99902.16
2019-05-17T06:40:18.562Z,99907.13
2019-05-17T06:42:52.513Z,99903.70
2019-05-17T06:45:26.122Z,99904.69
2019-05-17T06:47:59.533Z,99911.32
2019-05-17T06:50:32.966Z,99896.52
2019-05-17T06:53:06.525Z,99899.33
2019-05-17T06:55:42.140Z,99900.71
2019-05-17T06:58:15.109Z,99901.48
2019-05-17T07:00:49.764Z,99899.92
2019-05-17T07:03:23.237Z,99895.20
2019-05-17T07:05:59.631Z,99894.27
2019-05-17T07:08:33.227Z,99889.11
2019-05-17T07:11:06.629Z,99885.52
2019-05-17T07:13:40.083Z,99887.62
2019-05-17T07:16:13.479Z,99886.91
2019-05-17T07:18:49.273Z,99885.03
2019-05-17T07:21:22.032Z,99878.36
2019-05-17T07:23:55.458Z,99879.94
2019-05-17T07:26:30.236Z,99876.80
2019-05-17T07:29:03.767Z,99876.95
2019-05-17T07:31:37.174Z,99873.59
2019-05-17T07:34:11.321Z,99867.98
2019-05-17T07:36:44.756Z,99861.11
2019-05-17T07:39:20.321Z,99854.41
2019-05-17T07:41:53.319Z,99854.13
2019-05-17T07:44:26.821Z,99850.88
2019-05-17T07:47:01.029Z,99854.86
2019-05-17T07:49:34.457Z,99845.43
2019-05-17T07:52:10.196Z,99848.50
2019-05-17T07:54:43.014Z,99840.77
2019-05-17T07:57:16.449Z,99839.78
2019-05-17T07:59:50.807Z,99830.05
2019-05-17T08:02:24.276Z,99827.20
2019-05-17T08:05:00.237Z,99832.15
2019-05-17T08:07:32.923Z,99819.45
2019-05-17T08:10:07.543Z,99821.19
2019-05-17T08:12:41.226Z,99816.72
2019-05-17T08:15:14.784Z,99806.67
2019-05-17T08:17:50.178Z,99806.67
2019-05-17T08:20:23.460Z,99806.86
2019-05-17T08:22:56.869Z,99795.06
2019-05-17T08:25:30.516Z,99790.91
2019-05-17T08:28:03.900Z,99788.98
2019-05-17T08:30:37.313Z,99781.55
2019-05-17T08:33:11.263Z,99785.77
2019-05-17T08:35:44.703Z,99781.69
2019-05-17T08:38:19.744Z,99782.98
2019-05-17T08:40:53.379Z,99780.06
2019-05-17T08:43:38.310Z,99776.11
2019-05-17T08:46:02.897Z,99777.25
2019-05-17T08:48:36.442Z,99771.26
2019-05-17T08:51:10.743Z,99768.67
2019-05-17T08:53:44.393Z,99768.56
2019-05-17T08:56:20.372Z,99760.33
2019-05-17T08:58:52.931Z,99757.60
2019-05-17T09:01:26.323Z,99759.96
2019-05-17T09:04:00.006Z,99753.34
2019-05-17T09:06:33.422Z,99755.92
2019-05-17T09:09:09.819Z,99746.12
2019-05-17T09:11:42.690Z,99745.55
2019-05-17T09:14:16.099Z,99743.22
2019-05-17T09:16:51.111Z,99740.56
2019-05-17T09:19:24.491Z,99744.31
2019-05-17T09:21:59.804Z,99742.83
2019-05-17T09:24:33.244Z,99740.73
2019-05-17T09:27:06.714Z,99743.17
2019-05-17T09:29:40.449Z,99737.80
2019-05-17T09:32:13.908Z,99737.97
2019-05-17T09:34:49.658Z,99739.05
2019-05-17T09:37:22.713Z,99735.04
2019-05-17T09:39:56.127Z,99732.14
2019-05-17T09:42:30.120Z,99726.94
2019-05-17T09:45:04.307Z,99727.05
2019-05-17T09:47:39.819Z,99730.92
2019-05-17T09:50:14.845Z,99732.42
2019-05-17T09:52:49.482Z,99724.70
2019-05-17T09:55:23.144Z,99720.82
2019-05-17T09:57:56.661Z,99713.39
2019-05-17T10:00:31.296Z,99713.69
2019-05-17T10:03:04.781Z,99712.86
2019-05-17T10:05:40.565Z,99707.00
2019-05-17T10:08:13.280Z,99716.63
2019-05-17T10:10:46.736Z,99711.03
2019-05-17T10:13:20.311Z,99710.84
2019-05-17T10:15:53.725Z,99706.63
2019-05-17T10:18:29.439Z,99704.10
2019-05-17T10:21:02.300Z,99704.37
2019-05-17T10:23:35.679Z,99700.95
2019-05-17T10:26:10.251Z,99695.34
2019-05-17T10:28:43.888Z,99695.05
2019-05-17T10:31:19.607Z,99694.50
2019-05-17T10:33:52.431Z,99693.36
2019-05-17T10:36:25.855Z,99693.70
2019-05-17T10:38:59.398Z,99684.25
2019-05-17T10:41:32.817Z,99683.40
2019-05-17T10:44:06.207Z,99680.80
2019-05-17T10:46:40.704Z,99680.05
2019-05-17T10:49:14.246Z,99682.83
2019-05-17T10:51:49.403Z,99686.99
2019-05-17T10:54:23.031Z,99690.14
2019-05-17T10:56:56.414Z,99691.17
2019-05-17T10:59:29.785Z,99683.88
2019-05-17T11:02:03.242Z,99688.66
2019-05-17T11:04:36.633Z,99677.70
2019-05-17T11:07:10.589Z,99670.01
2019-05-17T11:09:44.188Z,99668.12
2019-05-17T11:12:17.627Z,99644.95
2019-05-17T11:15:09.426Z,99667.16
2019-05-17T11:17:26.186Z,99668.41
2019-05-17T11:19:59.640Z,99663.92
2019-05-17T11:22:33.146Z,99664.33
2019-05-17T11:25:07.779Z,99661.19
2019-05-17T11:27:41.210Z,99662.41
2019-05-17T11:30:14.758Z,99656.33
2019-05-17T11:32:48.170Z,99657.48
2019-05-17T11:35:24.593Z,99663.15
2019-05-17T11:37:56.730Z,99656.53
2019-05-17T11:40:30.681Z,99654.99
2019-05-17T11:43:04.242Z,99656.82
2019-05-17T11:45:37.638Z,99648.24
2019-05-17T11:48:11.072Z,99647.12
2019-05-17T11:50:44.452Z,99642.16
2019-05-17T11:53:17.880Z,99639.34
2019-05-17T11:55:51.352Z,99636.70
2019-05-17T11:58:24.752Z,99626.22
2019-05-17T12:00:58.174Z,99631.02
2019-05-17T12:03:31.597Z,99627.98
2019-05-17T12:06:05.177Z,99629.95
2019-05-17T12:08:38.711Z,99630.67
2019-05-17T12:11:12.179Z,99629.98
2019-05-17T12:13:45.654Z,99626.47
2019-05-17T12:16:19.051Z,99622.75
2019-05-17T12:18:52.533Z,99628.34
2019-05-17T12:21:25.924Z,99624.49
2019-05-17T12:23:59.336Z,99630.66
2019-05-17T12:26:32.819Z,99623.30
2019-05-17T12:29:06.334Z,99610.79
2019-05-17T12:31:39.886Z,99617.41
2019-05-17T12:34:13.307Z,99620.03
2019-05-17T12:36:46.722Z,99610.41
2019-05-17T12:39:20.224Z,99619.98
2019-05-17T12:41:53.808Z,99605.26
2019-05-17T12:44:27.622Z,99604.48
2019-05-17T12:47:01.045Z,99605.09
2019-05-17T12:49:34.457Z,99612.17
2019-05-17T12:52:07.845Z,99614.45
2019-05-17T12:54:41.265Z,99615.91
2019-05-17T12:57:14.693Z,99612.71
2019-05-17T12:59:48.101Z,99603.77
2019-05-17T13:02:21.513Z,99601.19
2019-05-17T13:04:54.958Z,99597.66
2019-05-17T13:07:28.384Z,99595.48
2019-05-17T13:10:01.824Z,99595.56
2019-05-17T13:12:35.217Z,99591.95
2019-05-17T13:15:09.600Z,99594.16
2019-05-17T13:17:43.070Z,99594.38
2019-05-17T13:20:17.222Z,99590.03
2019-05-17T13:22:50.719Z,99590.73
2019-05-17T13:25:24.116Z,99589.42
2019-05-17T13:27:57.527Z,99595.75
2019-05-17T13:30:30.960Z,99596.50
2019-05-17T13:33:04.566Z,99586.47
2019-05-17T13:35:37.989Z,99579.74
2019-05-17T13:38:11.390Z,99575.47
2019-05-17T13:40:45.136Z,99582.08
2019-05-17T13:43:18.559Z,99582.30
2019-05-17T13:45:51.966Z,99581.97
2019-05-17T13:48:25.352Z,99577.02
2019-05-17T13:50:58.787Z,99575.84
2019-05-17T13:53:32.178Z,99566.73
2019-05-17T13:56:05.766Z,99562.07
2019-05-17T13:58:39.202Z,99550.70
2019-05-17T14:01:12.623Z,99551.20
2019-05-17T14:03:46.022Z,99544.76
2019-05-17T14:06:19.447Z,99549.63
2019-05-17T14:08:52.866Z,99550.85
2019-05-17T14:11:26.338Z,99548.77
2019-05-17T14:13:59.793Z,99551.22
2019-05-17T14:16:34.683Z,99538.00
2019-05-17T14:19:08.863Z,99538.00
2019-05-17T14:21:42.793Z,99544.51
2019-05-17T14:24:16.637Z,99539.62
2019-05-17T14:26:49.999Z,99538.17
2019-05-17T14:29:23.463Z,99537.53
2019-05-17T14:31:56.897Z,99538.52
2019-05-17T14:34:30.282Z,99537.84
2019-05-17T14:37:07.390Z,99533.70
2019-05-17T14:39:38.835Z,99528.77
2019-05-17T14:42:12.328Z,99526.07
2019-05-17T14:44:45.875Z,99527.64
2019-05-17T14:47:19.297Z,99526.28
2019-05-17T14:49:52.690Z,99528.44
2019-05-17T14:52:26.257Z,99524.89
2019-05-17T14:54:59.879Z,99530.59
2019-05-17T14:57:33.300Z,99523.28
2019-05-17T15:00:07.348Z,99524.52
2019-05-17T15:02:40.777Z,99533.98
2019-05-17T15:05:15.007Z,99531.55
2019-05-17T15:07:48.570Z,99522.91
2019-05-17T15:10:21.957Z,99534.66
2019-05-17T15:12:55.394Z,99528.84
2019-05-17T15:15:28.785Z,99517.88
2019-05-17T15:18:02.280Z,99521.00
2019-05-17T15:20:35.677Z,99512.97
2019-05-17T15:23:09.084Z,99506.23
2019-05-17T15:25:42.490Z,99503.32
2019-05-17T15:28:15.920Z,99503.09
2019-05-17T15:30:49.297Z,99502.88
2019-05-17T15:33:22.700Z,99502.30
2019-05-17T15:35:56.102Z,99499.09
2019-05-17T15:38:29.548Z,99494.42
2019-05-17T15:41:02.934Z,99490.50
2019-05-17T15:43:36.374Z,99493.15
2019-05-17T15:46:09.750Z,99490.88
2019-05-17T15:48:43.161Z,99488.94
2019-05-17T15:51:16.592Z,99482.90
2019-05-17T15:53:50.014Z,99473.30
2019-05-17T15:56:23.445Z,99477.09
2019-05-17T15:58:56.862Z,99469.58
2019-05-17T16:01:30.284Z,99475.11
2019-05-17T16:04:03.758Z,99465.49
2019-05-17T16:06:37.243Z,99469.52
2019-05-17T16:09:10.659Z,99466.91
2019-05-17T16:11:44.082Z,99471.80
2019-05-17T16:14:17.506Z,99470.19
2019-05-17T16:16:50.933Z,99471.71
2019-05-17T16:19:24.335Z,99471.20
2019-05-17T16:21:57.726Z,99462.97
2019-05-17T16:24:31.155Z,99466.92
2019-05-17T16:27:04.778Z,99468.88
2019-05-17T16:29:38.204Z,99474.36
2019-05-17T16:32:11.587Z,99475.23
2019-05-17T16:34:45.009Z,99467.11
2019-05-17T16:37:18.405Z,99467.30
2019-05-17T16:39:52.060Z,99471.91
2019-05-17T16:42:25.593Z,99463.84
2019-05-17T16:44:58.998Z,99473.60
2019-05-17T16:47:32.416Z,99473.98
2019-05-17T16:50:08.765Z,99473.27
2019-05-17T16:52:42.154Z,99473.27
2019-05-17T16:55:15.799Z,99472.97
2019-05-17T16:57:49.303Z,99468.41
2019-05-17T17:00:40.401Z,99471.39
2019-05-17T17:03:13.848Z,99468.48
2019-05-17T17:05:47.276Z,99465.11
2019-05-17T17:08:20.647Z,99465.22
2019-05-17T17:10:54.064Z,99462.09
2019-05-17T17:13:33.087Z,99470.80
2019-05-17T17:16:02.717Z,99465.80
2019-05-17T17:18:36.550Z,99464.02
2019-05-17T17:21:10.094Z,99479.39
2019-05-17T17:23:43.577Z,99470.44
2019-05-17T17:26:16.987Z,99478.11
2019-05-17T17:28:50.535Z,99477.73
2019-05-17T17:31:24.055Z,99480.34
2019-05-17T17:33:57.453Z,99477.84
2019-05-17T17:36:30.935Z,99484.10
2019-05-17T17:39:05.938Z,99484.66
2019-05-17T17:41:39.407Z,99479.31
2019-05-17T17:44:12.837Z,99488.73
2019-05-17T17:46:46.612Z,99483.52
2019-05-17T17:49:20.041Z,99487.89
2019-05-17T17:51:53.449Z,99485.11
2019-05-17T17:54:26.846Z,99481.59
2019-05-17T17:57:00.253Z,99478.02
2019-05-17T17:59:33.737Z,99477.34
2019-05-17T18:02:07.568Z,99481.27
2019-05-17T18:04:40.990Z,99478.19
2019-05-17T18:07:14.450Z,99475.22
2019-05-17T18:09:47.857Z,99469.63
2019-05-17T18:12:21.277Z,99469.67
2019-05-17T18:14:54.696Z,99482.23
2019-05-17T18:17:28.114Z,99476.59
2019-05-17T18:20:01.498Z,99477.62
2019-05-17T18:22:34.933Z,99481.06
2019-05-17T18:25:08.508Z,99482.89
2019-05-17T18:27:42.011Z,99484.97
2019-05-17T18:30:15.809Z,99487.55
2019-05-17T18:32:49.247Z,99490.13
2019-05-17T18:35:22.643Z,99490.91
2019-05-17T18:37:56.222Z,99491.22
2019-05-17T18:40:29.631Z,99491.36
2019-05-17T18:43:03.012Z,99488.93
2019-05-17T18:45:36.423Z,99492.53
2019-05-17T18:48:09.927Z,99489.52
2019-05-17T18:50:43.335Z,99496.08
2019-05-17T18:53:17.444Z,99498.37
2019-05-17T18:55:50.839Z,99498.37
2019-05-17T18:58:24.264Z,99497.83
2019-05-17T19:00:57.717Z,99496.22
2019-05-17T19:03:31.229Z,99505.31
2019-05-17T19:06:05.407Z,99503.34
2019-05-17T19:08:38.837Z,99501.46
2019-05-17T19:11:12.328Z,99507.08
2019-05-17T19:13:45.732Z,99511.75
2019-05-17T19:16:19.146Z,99524.70
2019-05-17T19:18:52.557Z,99528.02
2019-05-17T19:21:25.968Z,99539.44
2019-05-17T19:23:59.410Z,99549.32
2019-05-17T19:26:32.826Z,99553.27
2019-05-17T19:29:06.398Z,99562.27
2019-05-17T19:31:39.795Z,99558.97
2019-05-17T19:34:13.293Z,99568.72
2019-05-17T19:36:46.715Z,99566.53
2019-05-17T19:39:20.127Z,99565.87
2019-05-17T19:41:53.595Z,99560.91
2019-05-17T19:44:26.936Z,99555.12
2019-05-17T19:47:00.372Z,99548.94
2019-05-17T19:49:33.770Z,99545.21
2019-05-17T19:52:07.274Z,99551.02
2019-05-17T19:54:40.662Z,99554.03
2019-05-17T19:57:14.092Z,99561.81
2019-05-17T19:59:47.505Z,99565.99
2019-05-17T20:02:20.987Z,99568.13
2019-05-17T20:04:54.403Z,99574.81
2019-05-17T20:07:36.344Z,99582.01
2019-05-17T20:10:03.636Z,99574.97
2019-05-17T20:12:37.031Z,99582.42
2019-05-17T20:15:17.175Z,99584.54
2019-05-17T20:17:45.953Z,99583.56
2019-05-17T20:20:19.580Z,99583.11
2019-05-17T20:22:53.030Z,99586.09
2019-05-17T20:25:26.447Z,99582.72
2019-05-17T20:27:59.885Z,99584.84
2019-05-17T20:30:34.454Z,99579.11
2019-05-17T20:33:07.948Z,99578.22
2019-05-17T20:35:41.347Z,99580.41
2019-05-17T20:38:14.780Z,99577.28
2019-05-17T20:40:48.263Z,99577.70
2019-05-17T20:43:21.675Z,99576.38
2019-05-17T20:45:55.094Z,99581.20
2019-05-17T20:48:28.547Z,99579.72
2019-05-17T20:51:01.978Z,99579.17
2019-05-17T20:53:35.377Z,99574.92
2019-05-17T20:56:08.818Z,99583.45
2019-05-17T20:58:42.232Z,99584.78
2019-05-17T21:01:15.709Z,99583.63
2019-05-17T21:03:49.133Z,99583.22
2019-05-17T21:06:22.599Z,99581.59
2019-05-17T21:08:56.028Z,99582.63
2019-05-17T21:11:29.498Z,99577.35
2019-05-17T21:14:03.016Z,99576.73
2019-05-17T21:16:36.398Z,99582.11
2019-05-17T21:19:09.849Z,99580.70
2019-05-17T21:21:43.239Z,99580.09
2019-05-17T21:24:16.675Z,99586.52
2019-05-17T21:26:50.048Z,99585.52
2019-05-17T21:29:23.509Z,99584.98
2019-05-17T21:31:56.890Z,99585.06
2019-05-17T21:34:30.310Z,99589.02
2019-05-17T21:37:03.786Z,99591.46
2019-05-17T21:39:37.216Z,99594.04
2019-05-17T21:42:10.598Z,99600.41
2019-05-17T21:44:44.149Z,99596.16
2019-05-17T21:47:17.489Z,99603.14
2019-05-17T21:49:50.964Z,99617.75
2019-05-17T21:52:24.361Z,99615.95
2019-05-17T21:54:57.770Z,99619.37
2019-05-17T21:57:31.174Z,99630.48
2019-05-17T22:00:10.185Z,99628.19
2019-05-17T22:02:43.597Z,99630.59
2019-05-17T22:05:17.023Z,99634.78
2019-05-17T22:07:50.407Z,99637.59
2019-05-17T22:10:23.847Z,99634.78
2019-05-17T22:12:57.231Z,99637.38
2019-05-17T22:15:30.683Z,99638.95
2019-05-17T22:18:04.123Z,99637.97
2019-05-17T22:20:37.531Z,99646.91
2019-05-17T22:23:10.910Z,99646.45
2019-05-17T22:25:44.333Z,99644.35
2019-05-17T22:28:17.718Z,99644.64
2019-05-17T22:30:51.129Z,99648.56
2019-05-17T22:33:24.524Z,99644.81
2019-05-17T22:35:57.939Z,99641.80
2019-05-17T22:38:31.398Z,99642.63
2019-05-17T22:41:04.833Z,99639.45
2019-05-17T22:43:38.211Z,99645.47
2019-05-17T22:46:11.651Z,99643.95
2019-05-17T22:48:45.041Z,99644.11
2019-05-17T22:51:18.464Z,99644.40
2019-05-17T22:53:51.853Z,99643.81
2019-05-17T22:56:25.266Z,99641.54
2019-05-17T22:58:58.659Z,99644.30
2019-05-17T23:01:32.151Z,99639.46
2019-05-17T23:04:05.596Z,99640.57
2019-05-17T23:06:39.024Z,99639.34
2019-05-17T23:09:12.400Z,99637.10
2019-05-17T23:11:45.819Z,99637.11
2019-05-17T23:14:19.316Z,99636.18
2019-05-17T23:16:52.718Z,99636.06
2019-05-17T23:19:26.117Z,99636.70
2019-05-17T23:21:59.544Z,99640.20
2019-05-17T23:24:32.941Z,99640.20
2019-05-17T23:27:06.376Z,99644.98
2019-05-17T23:29:41.273Z,99642.67
2019-05-17T23:32:14.873Z,99650.03
2019-05-17T23:34:48.272Z,99644.60
2019-05-17T23:37:21.678Z,99646.05
2019-05-17T23:39:55.060Z,99651.68
2019-05-17T23:42:28.489Z,99653.14
2019-05-17T23:45:01.972Z,99652.20
2019-05-17T23:47:35.459Z,99650.74
2019-05-17T23:50:09.601Z,99647.42
2019-05-17T23:52:43.183Z,99653.38
2019-05-17T23:55:16.646Z,99648.06
2019-05-17T23:57:50.074Z,99651.88
